sensor_id;sensor_type;location;lat;lon;timestamp;P1;durP1;ratioP1;P2;durP2;ratioP2
11731;SDS011;5922;53.734;10.258;2023-02-28T00:00:40;6.33;;;3.67;;
11731;SDS011;5922;53.734;10.258;2023-02-28T00:03:08;4.97;;;3.77;;
11731;SDS011;5922;53.734;10.258;2023-02-28T00:05:36;8.43;;;4.20;;
11731;SDS011;5922;53.734;10.258;2023-02-28T00:08:04;6.30;;;4.30;;
11731;SDS011;5922;53.734;10.258;2023-02-28T00:10:31;6.60;;;4.20;;
11731;SDS011;5922;53.734;10.258;2023-02-28T00:12:59;7.37;;;3.90;;
11731;SDS011;5922;53.734;10.258;2023-02-28T00:15:27;5.90;;;3.87;;
11731;SDS011;5922;53.734;10.258;2023-02-28T00:17:54;8.20;;;4.27;;
11731;SDS011;5922;53.734;10.258;2023-02-28T00:20:21;5.40;;;3.87;;
11731;SDS011;5922;53.734;10.258;2023-02-28T00:22:51;5.87;;;3.80;;
11731;SDS011;5922;53.734;10.258;2023-02-28T00:25:19;5.47;;;3.63;;
11731;SDS011;5922;53.734;10.258;2023-02-28T00:27:47;6.67;;;4.07;;
11731;SDS011;5922;53.734;10.258;2023-02-28T00:30:15;7.77;;;4.30;;
11731;SDS011;5922;53.734;10.258;2023-02-28T00:32:43;7.37;;;4.20;;
11731;SDS011;5922;53.734;10.258;2023-02-28T00:35:10;6.40;;;4.10;;
11731;SDS011;5922;53.734;10.258;2023-02-28T00:37:38;6.70;;;4.27;;
11731;SDS011;5922;53.734;10.258;2023-02-28T00:40:07;7.63;;;4.27;;
11731;SDS011;5922;53.734;10.258;2023-02-28T00:42:36;6.30;;;4.40;;
11731;SDS011;5922;53.734;10.258;2023-02-28T00:45:04;6.17;;;4.03;;
11731;SDS011;5922;53.734;10.258;2023-02-28T00:47:32;5.70;;;4.07;;
11731;SDS011;5922;53.734;10.258;2023-02-28T00:49:59;7.50;;;4.50;;
11731;SDS011;5922;53.734;10.258;2023-02-28T00:52:26;7.07;;;4.20;;
11731;SDS011;5922;53.734;10.258;2023-02-28T00:54:54;7.83;;;4.23;;
11731;SDS011;5922;53.734;10.258;2023-02-28T00:57:22;7.30;;;4.50;;
11731;SDS011;5922;53.734;10.258;2023-02-28T00:59:50;8.23;;;4.33;;
11731;SDS011;5922;53.734;10.258;2023-02-28T01:02:19;7.43;;;4.00;;
11731;SDS011;5922;53.734;10.258;2023-02-28T01:04:46;9.07;;;4.23;;
11731;SDS011;5922;53.734;10.258;2023-02-28T01:07:13;8.10;;;4.17;;
11731;SDS011;5922;53.734;10.258;2023-02-28T01:09:40;7.60;;;4.60;;
11731;SDS011;5922;53.734;10.258;2023-02-28T01:12:08;6.10;;;4.57;;
11731;SDS011;5922;53.734;10.258;2023-02-28T01:14:36;7.87;;;4.17;;
11731;SDS011;5922;53.734;10.258;2023-02-28T01:17:05;7.43;;;4.40;;
11731;SDS011;5922;53.734;10.258;2023-02-28T01:19:32;7.33;;;4.27;;
11731;SDS011;5922;53.734;10.258;2023-02-28T01:22:00;9.87;;;4.53;;
11731;SDS011;5922;53.734;10.258;2023-02-28T01:24:28;7.63;;;4.20;;
11731;SDS011;5922;53.734;10.258;2023-02-28T01:26:55;7.40;;;4.00;;
11731;SDS011;5922;53.734;10.258;2023-02-28T01:29:22;6.90;;;4.03;;
11731;SDS011;5922;53.734;10.258;2023-02-28T01:31:51;6.20;;;4.03;;
11731;SDS011;5922;53.734;10.258;2023-02-28T01:34:18;7.83;;;4.73;;
11731;SDS011;5922;53.734;10.258;2023-02-28T01:36:45;6.43;;;3.50;;
11731;SDS011;5922;53.734;10.258;2023-02-28T01:39:12;9.00;;;4.07;;
11731;SDS011;5922;53.734;10.258;2023-02-28T01:41:39;5.87;;;4.30;;
11731;SDS011;5922;53.734;10.258;2023-02-28T01:46:51;7.87;;;4.20;;
11731;SDS011;5922;53.734;10.258;2023-02-28T01:49:21;6.80;;;4.07;;
11731;SDS011;5922;53.734;10.258;2023-02-28T01:51:49;5.33;;;3.63;;
11731;SDS011;5922;53.734;10.258;2023-02-28T01:54:19;6.13;;;4.07;;
11731;SDS011;5922;53.734;10.258;2023-02-28T01:56:47;7.17;;;3.87;;
11731;SDS011;5922;53.734;10.258;2023-02-28T01:59:19;7.60;;;4.27;;
11731;SDS011;5922;53.734;10.258;2023-02-28T02:01:48;7.93;;;3.80;;
11731;SDS011;5922;53.734;10.258;2023-02-28T02:04:16;9.37;;;4.03;;
11731;SDS011;5922;53.734;10.258;2023-02-28T02:06:44;8.13;;;4.10;;
11731;SDS011;5922;53.734;10.258;2023-02-28T02:09:12;5.23;;;3.47;;
11731;SDS011;5922;53.734;10.258;2023-02-28T02:11:40;6.17;;;4.10;;
11731;SDS011;5922;53.734;10.258;2023-02-28T02:14:13;4.10;;;3.20;;
11731;SDS011;5922;53.734;10.258;2023-02-28T02:16:51;8.23;;;3.47;;
11731;SDS011;5922;53.734;10.258;2023-02-28T02:19:28;5.43;;;3.43;;
11731;SDS011;5922;53.734;10.258;2023-02-28T02:22:11;3.33;;;2.57;;
11731;SDS011;5922;53.734;10.258;2023-02-28T02:27:26;4.20;;;2.63;;
11731;SDS011;5922;53.734;10.258;2023-02-28T02:32:54;6.17;;;2.53;;
11731;SDS011;5922;53.734;10.258;2023-02-28T02:35:32;4.93;;;2.60;;
11731;SDS011;5922;53.734;10.258;2023-02-28T02:38:02;4.90;;;2.40;;
11731;SDS011;5922;53.734;10.258;2023-02-28T02:40:35;3.30;;;2.23;;
11731;SDS011;5922;53.734;10.258;2023-02-28T02:43:04;5.10;;;2.57;;
11731;SDS011;5922;53.734;10.258;2023-02-28T02:45:34;5.77;;;2.47;;
11731;SDS011;5922;53.734;10.258;2023-02-28T02:48:06;3.93;;;2.40;;
11731;SDS011;5922;53.734;10.258;2023-02-28T02:50:37;4.23;;;2.37;;
11731;SDS011;5922;53.734;10.258;2023-02-28T02:53:06;5.63;;;2.73;;
11731;SDS011;5922;53.734;10.258;2023-02-28T02:55:34;5.50;;;2.20;;
11731;SDS011;5922;53.734;10.258;2023-02-28T02:58:05;4.03;;;2.47;;
11731;SDS011;5922;53.734;10.258;2023-02-28T03:00:34;4.47;;;2.30;;
11731;SDS011;5922;53.734;10.258;2023-02-28T03:03:02;4.60;;;2.77;;
11731;SDS011;5922;53.734;10.258;2023-02-28T03:05:32;7.90;;;3.30;;
11731;SDS011;5922;53.734;10.258;2023-02-28T03:08:04;4.03;;;2.70;;
11731;SDS011;5922;53.734;10.258;2023-02-28T03:10:33;5.53;;;2.50;;
11731;SDS011;5922;53.734;10.258;2023-02-28T03:13:03;3.80;;;2.50;;
11731;SDS011;5922;53.734;10.258;2023-02-28T03:15:35;5.27;;;2.77;;
11731;SDS011;5922;53.734;10.258;2023-02-28T03:18:06;5.10;;;2.80;;
11731;SDS011;5922;53.734;10.258;2023-02-28T03:20:38;4.87;;;2.80;;
11731;SDS011;5922;53.734;10.258;2023-02-28T03:23:12;7.33;;;3.07;;
11731;SDS011;5922;53.734;10.258;2023-02-28T03:25:43;4.13;;;2.57;;
11731;SDS011;5922;53.734;10.258;2023-02-28T03:28:14;5.43;;;2.70;;
11731;SDS011;5922;53.734;10.258;2023-02-28T03:30:45;4.40;;;2.50;;
11731;SDS011;5922;53.734;10.258;2023-02-28T03:33:19;5.03;;;2.73;;
11731;SDS011;5922;53.734;10.258;2023-02-28T03:35:50;5.40;;;3.27;;
11731;SDS011;5922;53.734;10.258;2023-02-28T03:38:20;6.23;;;2.80;;
11731;SDS011;5922;53.734;10.258;2023-02-28T03:40:49;5.50;;;2.67;;
11731;SDS011;5922;53.734;10.258;2023-02-28T03:43:19;5.17;;;3.10;;
11731;SDS011;5922;53.734;10.258;2023-02-28T03:45:47;3.60;;;2.60;;
11731;SDS011;5922;53.734;10.258;2023-02-28T03:48:17;4.37;;;2.63;;
11731;SDS011;5922;53.734;10.258;2023-02-28T03:50:47;3.43;;;2.60;;
11731;SDS011;5922;53.734;10.258;2023-02-28T03:53:18;4.00;;;2.67;;
11731;SDS011;5922;53.734;10.258;2023-02-28T03:55:48;4.87;;;2.83;;
11731;SDS011;5922;53.734;10.258;2023-02-28T03:58:19;3.93;;;2.47;;
11731;SDS011;5922;53.734;10.258;2023-02-28T04:00:48;4.53;;;2.67;;
11731;SDS011;5922;53.734;10.258;2023-02-28T04:03:17;4.37;;;2.57;;
11731;SDS011;5922;53.734;10.258;2023-02-28T04:05:46;4.10;;;2.43;;
11731;SDS011;5922;53.734;10.258;2023-02-28T04:08:14;3.90;;;2.47;;
11731;SDS011;5922;53.734;10.258;2023-02-28T04:10:42;4.33;;;2.27;;
11731;SDS011;5922;53.734;10.258;2023-02-28T04:13:11;3.00;;;2.40;;
11731;SDS011;5922;53.734;10.258;2023-02-28T04:15:38;7.87;;;2.50;;
11731;SDS011;5922;53.734;10.258;2023-02-28T04:18:06;6.53;;;2.93;;
11731;SDS011;5922;53.734;10.258;2023-02-28T04:20:33;5.30;;;2.43;;
11731;SDS011;5922;53.734;10.258;2023-02-28T04:23:00;6.27;;;2.60;;
11731;SDS011;5922;53.734;10.258;2023-02-28T04:25:27;5.33;;;3.03;;
11731;SDS011;5922;53.734;10.258;2023-02-28T04:27:54;2.90;;;2.30;;
11731;SDS011;5922;53.734;10.258;2023-02-28T04:30:23;4.20;;;2.30;;
11731;SDS011;5922;53.734;10.258;2023-02-28T04:32:50;3.80;;;2.53;;
11731;SDS011;5922;53.734;10.258;2023-02-28T04:35:18;6.90;;;2.93;;
11731;SDS011;5922;53.734;10.258;2023-02-28T04:37:45;4.93;;;2.90;;
11731;SDS011;5922;53.734;10.258;2023-02-28T04:40:12;5.50;;;3.20;;
11731;SDS011;5922;53.734;10.258;2023-02-28T04:42:39;4.60;;;3.20;;
11731;SDS011;5922;53.734;10.258;2023-02-28T04:45:07;5.67;;;2.80;;
11731;SDS011;5922;53.734;10.258;2023-02-28T04:47:36;5.70;;;2.70;;
11731;SDS011;5922;53.734;10.258;2023-02-28T04:50:04;4.43;;;2.57;;
11731;SDS011;5922;53.734;10.258;2023-02-28T04:52:31;6.57;;;3.03;;
11731;SDS011;5922;53.734;10.258;2023-02-28T04:54:59;6.00;;;3.07;;
11731;SDS011;5922;53.734;10.258;2023-02-28T04:57:26;4.60;;;2.83;;
11731;SDS011;5922;53.734;10.258;2023-02-28T04:59:55;6.47;;;3.10;;
11731;SDS011;5922;53.734;10.258;2023-02-28T05:02:22;5.07;;;2.40;;
11731;SDS011;5922;53.734;10.258;2023-02-28T05:04:50;5.43;;;2.80;;
11731;SDS011;5922;53.734;10.258;2023-02-28T05:07:18;5.43;;;3.10;;
11731;SDS011;5922;53.734;10.258;2023-02-28T05:09:45;4.60;;;2.90;;
11731;SDS011;5922;53.734;10.258;2023-02-28T05:12:12;6.57;;;2.87;;
11731;SDS011;5922;53.734;10.258;2023-02-28T05:14:39;4.13;;;2.60;;
11731;SDS011;5922;53.734;10.258;2023-02-28T05:17:07;5.67;;;2.77;;
11731;SDS011;5922;53.734;10.258;2023-02-28T05:19:35;6.37;;;2.50;;
11731;SDS011;5922;53.734;10.258;2023-02-28T05:22:04;6.60;;;2.53;;
11731;SDS011;5922;53.734;10.258;2023-02-28T05:24:31;6.37;;;3.20;;
11731;SDS011;5922;53.734;10.258;2023-02-28T05:29:54;5.33;;;3.10;;
11731;SDS011;5922;53.734;10.258;2023-02-28T05:32:21;4.20;;;2.90;;
11731;SDS011;5922;53.734;10.258;2023-02-28T05:34:48;6.27;;;2.57;;
11731;SDS011;5922;53.734;10.258;2023-02-28T05:37:17;8.57;;;3.07;;
11731;SDS011;5922;53.734;10.258;2023-02-28T05:39:50;4.03;;;2.80;;
11731;SDS011;5922;53.734;10.258;2023-02-28T05:42:17;6.40;;;2.73;;
11731;SDS011;5922;53.734;10.258;2023-02-28T05:44:44;4.53;;;3.20;;
11731;SDS011;5922;53.734;10.258;2023-02-28T05:47:12;5.13;;;2.77;;
11731;SDS011;5922;53.734;10.258;2023-02-28T05:49:40;5.47;;;3.10;;
11731;SDS011;5922;53.734;10.258;2023-02-28T05:52:07;4.97;;;2.90;;
11731;SDS011;5922;53.734;10.258;2023-02-28T05:54:37;7.17;;;3.00;;
11731;SDS011;5922;53.734;10.258;2023-02-28T05:57:04;6.07;;;2.80;;
11731;SDS011;5922;53.734;10.258;2023-02-28T05:59:31;6.67;;;3.20;;
11731;SDS011;5922;53.734;10.258;2023-02-28T06:01:59;6.30;;;2.90;;
11731;SDS011;5922;53.734;10.258;2023-02-28T06:05:11;4.47;;;2.83;;
11731;SDS011;5922;53.734;10.258;2023-02-28T06:07:27;5.03;;;2.83;;
11731;SDS011;5922;53.734;10.258;2023-02-28T06:09:57;5.43;;;3.10;;
11731;SDS011;5922;53.734;10.258;2023-02-28T06:12:25;5.30;;;3.10;;
11731;SDS011;5922;53.734;10.258;2023-02-28T06:14:52;5.53;;;3.13;;
11731;SDS011;5922;53.734;10.258;2023-02-28T06:17:19;5.57;;;3.20;;
11731;SDS011;5922;53.734;10.258;2023-02-28T06:19:46;6.20;;;3.37;;
11731;SDS011;5922;53.734;10.258;2023-02-28T06:22:14;8.10;;;3.47;;
11731;SDS011;5922;53.734;10.258;2023-02-28T06:24:45;7.97;;;3.87;;
11731;SDS011;5922;53.734;10.258;2023-02-28T06:32:50;6.83;;;4.13;;
11731;SDS011;5922;53.734;10.258;2023-02-28T06:35:18;6.80;;;4.17;;
11731;SDS011;5922;53.734;10.258;2023-02-28T06:37:48;7.87;;;4.57;;
11731;SDS011;5922;53.734;10.258;2023-02-28T06:40:17;6.70;;;4.50;;
11731;SDS011;5922;53.734;10.258;2023-02-28T06:43:04;6.17;;;4.30;;
11731;SDS011;5922;53.734;10.258;2023-02-28T06:45:32;7.13;;;4.40;;
11731;SDS011;5922;53.734;10.258;2023-02-28T06:47:59;7.83;;;4.60;;
11731;SDS011;5922;53.734;10.258;2023-02-28T06:50:26;8.00;;;4.20;;
11731;SDS011;5922;53.734;10.258;2023-02-28T06:52:55;7.27;;;4.73;;
11731;SDS011;5922;53.734;10.258;2023-02-28T06:55:24;5.57;;;3.97;;
11731;SDS011;5922;53.734;10.258;2023-02-28T06:57:51;7.40;;;4.60;;
11731;SDS011;5922;53.734;10.258;2023-02-28T07:00:20;7.70;;;4.83;;
11731;SDS011;5922;53.734;10.258;2023-02-28T07:02:56;8.97;;;4.50;;
11731;SDS011;5922;53.734;10.258;2023-02-28T07:05:42;7.23;;;4.47;;
11731;SDS011;5922;53.734;10.258;2023-02-28T07:08:10;7.20;;;4.30;;
11731;SDS011;5922;53.734;10.258;2023-02-28T07:10:39;7.63;;;4.00;;
11731;SDS011;5922;53.734;10.258;2023-02-28T07:13:07;6.47;;;4.47;;
11731;SDS011;5922;53.734;10.258;2023-02-28T07:15:35;8.00;;;4.90;;
11731;SDS011;5922;53.734;10.258;2023-02-28T07:18:03;7.67;;;4.83;;
11731;SDS011;5922;53.734;10.258;2023-02-28T07:20:30;9.07;;;5.40;;
11731;SDS011;5922;53.734;10.258;2023-02-28T07:22:57;13.97;;;7.20;;
11731;SDS011;5922;53.734;10.258;2023-02-28T07:25:25;23.20;;;14.33;;
11731;SDS011;5922;53.734;10.258;2023-02-28T07:27:55;35.27;;;18.03;;
11731;SDS011;5922;53.734;10.258;2023-02-28T07:30:24;42.87;;;23.77;;
11731;SDS011;5922;53.734;10.258;2023-02-28T07:32:51;44.40;;;23.23;;
11731;SDS011;5922;53.734;10.258;2023-02-28T07:35:19;32.20;;;18.30;;
11731;SDS011;5922;53.734;10.258;2023-02-28T07:37:47;29.00;;;15.40;;
11731;SDS011;5922;53.734;10.258;2023-02-28T07:40:14;25.87;;;14.83;;
11731;SDS011;5922;53.734;10.258;2023-02-28T07:42:43;22.97;;;12.97;;
11731;SDS011;5922;53.734;10.258;2023-02-28T07:45:12;23.00;;;11.93;;
11731;SDS011;5922;53.734;10.258;2023-02-28T07:47:39;27.70;;;13.53;;
11731;SDS011;5922;53.734;10.258;2023-02-28T07:50:07;24.47;;;12.77;;
11731;SDS011;5922;53.734;10.258;2023-02-28T07:52:35;32.30;;;14.53;;
11731;SDS011;5922;53.734;10.258;2023-02-28T07:55:03;19.13;;;10.90;;
11731;SDS011;5922;53.734;10.258;2023-02-28T07:57:32;17.90;;;10.00;;
11731;SDS011;5922;53.734;10.258;2023-02-28T07:59:59;15.13;;;9.00;;
11731;SDS011;5922;53.734;10.258;2023-02-28T08:02:30;12.50;;;7.13;;
11731;SDS011;5922;53.734;10.258;2023-02-28T08:04:58;11.30;;;6.10;;
11731;SDS011;5922;53.734;10.258;2023-02-28T08:07:26;9.30;;;6.60;;
11731;SDS011;5922;53.734;10.258;2023-02-28T08:09:54;9.50;;;5.60;;
11731;SDS011;5922;53.734;10.258;2023-02-28T08:12:21;8.57;;;5.33;;
11731;SDS011;5922;53.734;10.258;2023-02-28T08:14:48;6.90;;;5.27;;
11731;SDS011;5922;53.734;10.258;2023-02-28T08:17:15;7.10;;;5.43;;
11731;SDS011;5922;53.734;10.258;2023-02-28T08:19:46;7.30;;;4.07;;
11731;SDS011;5922;53.734;10.258;2023-02-28T08:22:13;6.50;;;4.17;;
11731;SDS011;5922;53.734;10.258;2023-02-28T08:24:40;8.30;;;4.17;;
11731;SDS011;5922;53.734;10.258;2023-02-28T08:27:08;6.97;;;3.83;;
11731;SDS011;5922;53.734;10.258;2023-02-28T08:29:36;6.60;;;4.07;;
11731;SDS011;5922;53.734;10.258;2023-02-28T08:32:04;5.30;;;3.20;;
11731;SDS011;5922;53.734;10.258;2023-02-28T08:34:31;5.70;;;3.37;;
11731;SDS011;5922;53.734;10.258;2023-02-28T08:37:00;7.00;;;3.20;;
11731;SDS011;5922;53.734;10.258;2023-02-28T08:39:28;4.60;;;3.03;;
11731;SDS011;5922;53.734;10.258;2023-02-28T08:41:55;5.20;;;3.33;;
11731;SDS011;5922;53.734;10.258;2023-02-28T08:44:23;6.10;;;3.50;;
11731;SDS011;5922;53.734;10.258;2023-02-28T08:46:50;4.90;;;3.47;;
11731;SDS011;5922;53.734;10.258;2023-02-28T08:49:18;4.90;;;3.40;;
11731;SDS011;5922;53.734;10.258;2023-02-28T08:51:45;5.93;;;3.43;;
11731;SDS011;5922;53.734;10.258;2023-02-28T08:54:14;5.43;;;3.23;;
11731;SDS011;5922;53.734;10.258;2023-02-28T08:56:44;7.77;;;3.53;;
11731;SDS011;5922;53.734;10.258;2023-02-28T08:59:14;6.40;;;3.70;;
11731;SDS011;5922;53.734;10.258;2023-02-28T09:01:42;5.57;;;2.90;;
11731;SDS011;5922;53.734;10.258;2023-02-28T09:04:10;3.87;;;2.70;;
11731;SDS011;5922;53.734;10.258;2023-02-28T09:06:37;3.03;;;2.60;;
11731;SDS011;5922;53.734;10.258;2023-02-28T09:09:05;3.73;;;2.67;;
11731;SDS011;5922;53.734;10.258;2023-02-28T09:11:36;3.30;;;2.80;;
11731;SDS011;5922;53.734;10.258;2023-02-28T09:14:03;3.83;;;2.70;;
11731;SDS011;5922;53.734;10.258;2023-02-28T09:16:31;6.03;;;3.27;;
11731;SDS011;5922;53.734;10.258;2023-02-28T09:19:00;3.03;;;2.47;;
11731;SDS011;5922;53.734;10.258;2023-02-28T09:21:27;6.27;;;2.60;;
11731;SDS011;5922;53.734;10.258;2023-02-28T09:23:55;4.83;;;3.10;;
11731;SDS011;5922;53.734;10.258;2023-02-28T09:26:22;4.23;;;2.53;;
11731;SDS011;5922;53.734;10.258;2023-02-28T09:28:52;4.77;;;2.70;;
11731;SDS011;5922;53.734;10.258;2023-02-28T09:31:20;3.33;;;2.40;;
11731;SDS011;5922;53.734;10.258;2023-02-28T09:33:48;4.03;;;2.43;;
11731;SDS011;5922;53.734;10.258;2023-02-28T09:36:16;6.87;;;2.47;;
11731;SDS011;5922;53.734;10.258;2023-02-28T09:38:44;5.17;;;2.73;;
11731;SDS011;5922;53.734;10.258;2023-02-28T09:41:13;2.97;;;2.23;;
11731;SDS011;5922;53.734;10.258;2023-02-28T09:43:43;3.53;;;2.80;;
11731;SDS011;5922;53.734;10.258;2023-02-28T09:46:14;5.20;;;2.60;;
11731;SDS011;5922;53.734;10.258;2023-02-28T09:48:48;4.73;;;2.63;;
11731;SDS011;5922;53.734;10.258;2023-02-28T09:51:23;5.20;;;2.50;;
11731;SDS011;5922;53.734;10.258;2023-02-28T09:53:53;3.10;;;2.80;;
11731;SDS011;5922;53.734;10.258;2023-02-28T09:56:22;3.37;;;2.50;;
11731;SDS011;5922;53.734;10.258;2023-02-28T09:58:53;3.10;;;2.37;;
11731;SDS011;5922;53.734;10.258;2023-02-28T10:01:24;4.00;;;2.30;;
11731;SDS011;5922;53.734;10.258;2023-02-28T10:03:55;5.07;;;2.73;;
11731;SDS011;5922;53.734;10.258;2023-02-28T10:06:26;2.67;;;2.20;;
11731;SDS011;5922;53.734;10.258;2023-02-28T10:08:56;5.73;;;2.60;;
11731;SDS011;5922;53.734;10.258;2023-02-28T10:11:26;5.53;;;2.10;;
11731;SDS011;5922;53.734;10.258;2023-02-28T10:13:56;5.67;;;2.20;;
11731;SDS011;5922;53.734;10.258;2023-02-28T10:16:29;3.23;;;2.13;;
11731;SDS011;5922;53.734;10.258;2023-02-28T10:18:59;3.60;;;2.23;;
11731;SDS011;5922;53.734;10.258;2023-02-28T10:21:30;3.80;;;2.33;;
11731;SDS011;5922;53.734;10.258;2023-02-28T10:24:04;3.53;;;1.97;;
11731;SDS011;5922;53.734;10.258;2023-02-28T10:26:35;4.50;;;2.43;;
11731;SDS011;5922;53.734;10.258;2023-02-28T10:29:03;4.60;;;2.57;;
11731;SDS011;5922;53.734;10.258;2023-02-28T10:31:32;4.27;;;2.40;;
11731;SDS011;5922;53.734;10.258;2023-02-28T10:34:00;2.77;;;2.40;;
11731;SDS011;5922;53.734;10.258;2023-02-28T10:36:28;3.23;;;2.60;;
11731;SDS011;5922;53.734;10.258;2023-02-28T10:38:55;4.70;;;2.93;;
11731;SDS011;5922;53.734;10.258;2023-02-28T10:41:28;5.17;;;2.40;;
11731;SDS011;5922;53.734;10.258;2023-02-28T10:44:12;3.60;;;2.77;;
11731;SDS011;5922;53.734;10.258;2023-02-28T10:46:41;4.00;;;2.53;;
11731;SDS011;5922;53.734;10.258;2023-02-28T10:49:13;5.87;;;2.70;;
11731;SDS011;5922;53.734;10.258;2023-02-28T10:51:41;4.70;;;2.30;;
11731;SDS011;5922;53.734;10.258;2023-02-28T10:54:14;3.67;;;2.30;;
11731;SDS011;5922;53.734;10.258;2023-02-28T10:56:42;3.27;;;2.10;;
11731;SDS011;5922;53.734;10.258;2023-02-28T10:59:22;5.33;;;2.40;;
11731;SDS011;5922;53.734;10.258;2023-02-28T11:01:52;2.83;;;2.17;;
11731;SDS011;5922;53.734;10.258;2023-02-28T11:04:23;4.17;;;2.10;;
11731;SDS011;5922;53.734;10.258;2023-02-28T11:07:02;2.40;;;1.97;;
11731;SDS011;5922;53.734;10.258;2023-02-28T11:09:30;2.33;;;2.07;;
11731;SDS011;5922;53.734;10.258;2023-02-28T11:12:00;3.13;;;2.13;;
11731;SDS011;5922;53.734;10.258;2023-02-28T11:14:28;5.80;;;2.37;;
11731;SDS011;5922;53.734;10.258;2023-02-28T11:16:59;4.73;;;2.57;;
11731;SDS011;5922;53.734;10.258;2023-02-28T11:19:28;3.47;;;2.20;;
11731;SDS011;5922;53.734;10.258;2023-02-28T11:21:59;3.80;;;2.40;;
11731;SDS011;5922;53.734;10.258;2023-02-28T11:24:27;5.33;;;2.80;;
11731;SDS011;5922;53.734;10.258;2023-02-28T11:26:55;3.33;;;2.20;;
11731;SDS011;5922;53.734;10.258;2023-02-28T11:29:23;3.30;;;2.43;;
11731;SDS011;5922;53.734;10.258;2023-02-28T11:32:05;9.03;;;2.73;;
11731;SDS011;5922;53.734;10.258;2023-02-28T11:34:36;5.30;;;2.60;;
11731;SDS011;5922;53.734;10.258;2023-02-28T11:37:05;3.67;;;2.23;;
11731;SDS011;5922;53.734;10.258;2023-02-28T11:39:32;3.33;;;2.30;;
11731;SDS011;5922;53.734;10.258;2023-02-28T11:42:06;3.27;;;2.10;;
11731;SDS011;5922;53.734;10.258;2023-02-28T11:44:39;5.60;;;2.50;;
11731;SDS011;5922;53.734;10.258;2023-02-28T11:47:13;4.40;;;2.57;;
11731;SDS011;5922;53.734;10.258;2023-02-28T11:49:44;4.43;;;2.63;;
11731;SDS011;5922;53.734;10.258;2023-02-28T11:52:20;5.80;;;2.90;;
11731;SDS011;5922;53.734;10.258;2023-02-28T11:54:53;5.80;;;2.40;;
11731;SDS011;5922;53.734;10.258;2023-02-28T11:57:32;4.50;;;2.37;;
11731;SDS011;5922;53.734;10.258;2023-02-28T12:00:01;7.53;;;3.10;;
11731;SDS011;5922;53.734;10.258;2023-02-28T12:02:35;5.40;;;3.07;;
11731;SDS011;5922;53.734;10.258;2023-02-28T12:05:10;3.70;;;2.90;;
11731;SDS011;5922;53.734;10.258;2023-02-28T12:07:43;2.90;;;2.20;;
11731;SDS011;5922;53.734;10.258;2023-02-28T12:10:13;4.90;;;2.47;;
11731;SDS011;5922;53.734;10.258;2023-02-28T12:12:47;5.93;;;2.50;;
11731;SDS011;5922;53.734;10.258;2023-02-28T12:18:26;5.40;;;2.70;;
11731;SDS011;5922;53.734;10.258;2023-02-28T12:20:55;4.13;;;2.93;;
11731;SDS011;5922;53.734;10.258;2023-02-28T12:23:43;5.57;;;3.33;;
11731;SDS011;5922;53.734;10.258;2023-02-28T12:26:13;4.10;;;3.10;;
11731;SDS011;5922;53.734;10.258;2023-02-28T12:28:44;7.80;;;3.30;;
11731;SDS011;5922;53.734;10.258;2023-02-28T12:31:14;4.53;;;3.00;;
11731;SDS011;5922;53.734;10.258;2023-02-28T12:33:46;5.53;;;3.03;;
11731;SDS011;5922;53.734;10.258;2023-02-28T12:36:14;4.57;;;3.10;;
11731;SDS011;5922;53.734;10.258;2023-02-28T12:38:44;3.50;;;3.03;;
11731;SDS011;5922;53.734;10.258;2023-02-28T12:41:15;6.43;;;3.60;;
11731;SDS011;5922;53.734;10.258;2023-02-28T12:43:44;5.97;;;4.37;;
11731;SDS011;5922;53.734;10.258;2023-02-28T12:46:12;5.43;;;3.90;;
11731;SDS011;5922;53.734;10.258;2023-02-28T12:48:43;6.73;;;3.93;;
11731;SDS011;5922;53.734;10.258;2023-02-28T12:51:13;4.43;;;3.50;;
11731;SDS011;5922;53.734;10.258;2023-02-28T12:53:47;4.03;;;3.10;;
11731;SDS011;5922;53.734;10.258;2023-02-28T12:56:17;6.40;;;3.97;;
11731;SDS011;5922;53.734;10.258;2023-02-28T12:58:45;5.70;;;3.40;;
11731;SDS011;5922;53.734;10.258;2023-02-28T13:04:36;5.50;;;3.40;;
11731;SDS011;5922;53.734;10.258;2023-02-28T13:07:27;5.03;;;3.03;;
11731;SDS011;5922;53.734;10.258;2023-02-28T13:09:59;4.60;;;3.50;;
11731;SDS011;5922;53.734;10.258;2023-02-28T13:12:27;10.97;;;6.67;;
11731;SDS011;5922;53.734;10.258;2023-02-28T13:15:01;5.70;;;4.80;;
11731;SDS011;5922;53.734;10.258;2023-02-28T13:17:29;12.07;;;5.87;;
11731;SDS011;5922;53.734;10.258;2023-02-28T13:19:57;7.37;;;5.80;;
11731;SDS011;5922;53.734;10.258;2023-02-28T13:22:39;5.33;;;4.70;;
11731;SDS011;5922;53.734;10.258;2023-02-28T13:28:00;6.37;;;4.27;;
11731;SDS011;5922;53.734;10.258;2023-02-28T13:33:21;5.87;;;4.67;;
11731;SDS011;5922;53.734;10.258;2023-02-28T13:35:50;5.93;;;3.87;;
11731;SDS011;5922;53.734;10.258;2023-02-28T13:38:36;5.37;;;3.23;;
11731;SDS011;5922;53.734;10.258;2023-02-28T13:44:03;6.10;;;4.20;;
11731;SDS011;5922;53.734;10.258;2023-02-28T13:46:31;6.07;;;4.40;;
11731;SDS011;5922;53.734;10.258;2023-02-28T13:51:41;6.50;;;3.07;;
11731;SDS011;5922;53.734;10.258;2023-02-28T13:54:30;3.23;;;2.43;;
11731;SDS011;5922;53.734;10.258;2023-02-28T13:57:04;5.13;;;2.80;;
11731;SDS011;5922;53.734;10.258;2023-02-28T13:59:34;6.87;;;2.90;;
11731;SDS011;5922;53.734;10.258;2023-02-28T14:02:13;3.60;;;2.70;;
11731;SDS011;5922;53.734;10.258;2023-02-28T14:04:47;3.73;;;3.00;;
11731;SDS011;5922;53.734;10.258;2023-02-28T14:07:17;4.13;;;2.80;;
11731;SDS011;5922;53.734;10.258;2023-02-28T14:09:48;3.50;;;2.63;;
11731;SDS011;5922;53.734;10.258;2023-02-28T14:15:03;5.10;;;3.03;;
11731;SDS011;5922;53.734;10.258;2023-02-28T14:17:31;2.97;;;2.40;;
11731;SDS011;5922;53.734;10.258;2023-02-28T14:19:59;4.17;;;2.90;;
11731;SDS011;5922;53.734;10.258;2023-02-28T14:22:43;5.70;;;2.70;;
11731;SDS011;5922;53.734;10.258;2023-02-28T14:25:20;4.00;;;2.80;;
11731;SDS011;5922;53.734;10.258;2023-02-28T14:27:50;4.13;;;2.80;;
11731;SDS011;5922;53.734;10.258;2023-02-28T14:30:29;3.90;;;2.67;;
11731;SDS011;5922;53.734;10.258;2023-02-28T14:33:08;3.90;;;2.57;;
11731;SDS011;5922;53.734;10.258;2023-02-28T14:35:43;3.47;;;2.50;;
11731;SDS011;5922;53.734;10.258;2023-02-28T14:38:14;3.70;;;2.33;;
11731;SDS011;5922;53.734;10.258;2023-02-28T14:40:43;2.57;;;2.03;;
11731;SDS011;5922;53.734;10.258;2023-02-28T14:43:19;3.83;;;2.20;;
11731;SDS011;5922;53.734;10.258;2023-02-28T14:48:31;4.33;;;2.10;;
11731;SDS011;5922;53.734;10.258;2023-02-28T14:51:00;2.70;;;2.03;;
11731;SDS011;5922;53.734;10.258;2023-02-28T14:53:28;3.23;;;2.27;;
11731;SDS011;5922;53.734;10.258;2023-02-28T14:55:57;2.50;;;1.97;;
11731;SDS011;5922;53.734;10.258;2023-02-28T14:58:26;2.67;;;1.80;;
11731;SDS011;5922;53.734;10.258;2023-02-28T15:00:54;4.07;;;2.40;;
11731;SDS011;5922;53.734;10.258;2023-02-28T15:03:22;3.97;;;2.17;;
11731;SDS011;5922;53.734;10.258;2023-02-28T15:05:53;2.97;;;1.90;;
11731;SDS011;5922;53.734;10.258;2023-02-28T15:08:20;4.13;;;2.00;;
11731;SDS011;5922;53.734;10.258;2023-02-28T15:10:51;4.23;;;1.80;;
11731;SDS011;5922;53.734;10.258;2023-02-28T15:13:21;3.83;;;1.90;;
11731;SDS011;5922;53.734;10.258;2023-02-28T15:15:50;2.67;;;1.83;;
11731;SDS011;5922;53.734;10.258;2023-02-28T15:18:22;3.63;;;2.00;;
11731;SDS011;5922;53.734;10.258;2023-02-28T15:20:51;4.03;;;1.80;;
11731;SDS011;5922;53.734;10.258;2023-02-28T15:23:19;4.43;;;2.10;;
11731;SDS011;5922;53.734;10.258;2023-02-28T15:25:47;4.27;;;1.83;;
11731;SDS011;5922;53.734;10.258;2023-02-28T15:28:15;3.07;;;1.93;;
11731;SDS011;5922;53.734;10.258;2023-02-28T15:30:57;3.63;;;2.13;;
11731;SDS011;5922;53.734;10.258;2023-02-28T15:33:28;2.57;;;2.07;;
11731;SDS011;5922;53.734;10.258;2023-02-28T15:36:06;4.77;;;1.97;;
11731;SDS011;5922;53.734;10.258;2023-02-28T15:38:34;3.30;;;2.13;;
11731;SDS011;5922;53.734;10.258;2023-02-28T15:41:02;2.50;;;1.90;;